sensor_id;sensor_type;location;lat;lon;timestamp;P1;durP1;ratioP1;P2;durP2;ratioP2
46723;SDS011;32463;48.298;11.620;2023-02-08T00:00:33;26.52;;;10.50;;
46723;SDS011;32463;48.298;11.620;2023-02-08T00:03:00;26.60;;;10.25;;
46723;SDS011;32463;48.298;11.620;2023-02-08T00:05:27;23.02;;;10.02;;
46723;SDS011;32463;48.298;11.620;2023-02-08T00:07:53;26.60;;;10.48;;
46723;SDS011;32463;48.298;11.620;2023-02-08T00:10:19;20.08;;;10.27;;
46723;SDS011;32463;48.298;11.620;2023-02-08T00:12:46;18.35;;;9.23;;
46723;SDS011;32463;48.298;11.620;2023-02-08T00:15:12;21.25;;;10.60;;
46723;SDS011;32463;48.298;11.620;2023-02-08T00:17:39;25.75;;;11.00;;
46723;SDS011;32463;48.298;11.620;2023-02-08T00:20:06;20.75;;;9.82;;
46723;SDS011;32463;48.298;11.620;2023-02-08T00:22:32;24.45;;;10.50;;
46723;SDS011;32463;48.298;11.620;2023-02-08T00:25:00;23.83;;;10.98;;
46723;SDS011;32463;48.298;11.620;2023-02-08T00:27:26;22.60;;;10.45;;
46723;SDS011;32463;48.298;11.620;2023-02-08T00:29:53;22.67;;;10.90;;
46723;SDS011;32463;48.298;11.620;2023-02-08T00:32:19;22.17;;;10.45;;
46723;SDS011;32463;48.298;11.620;2023-02-08T00:34:46;22.98;;;10.27;;
46723;SDS011;32463;48.298;11.620;2023-02-08T00:37:12;23.00;;;11.55;;
46723;SDS011;32463;48.298;11.620;2023-02-08T00:39:39;23.08;;;10.82;;
46723;SDS011;32463;48.298;11.620;2023-02-08T00:42:05;24.17;;;10.85;;
46723;SDS011;32463;48.298;11.620;2023-02-08T00:44:32;25.00;;;11.65;;
46723;SDS011;32463;48.298;11.620;2023-02-08T00:46:58;25.02;;;11.18;;
46723;SDS011;32463;48.298;11.620;2023-02-08T00:49:25;22.42;;;10.98;;
46723;SDS011;32463;48.298;11.620;2023-02-08T00:51:51;23.95;;;11.23;;
46723;SDS011;32463;48.298;11.620;2023-02-08T00:54:18;22.98;;;11.05;;
46723;SDS011;32463;48.298;11.620;2023-02-08T00:56:46;22.70;;;9.93;;
46723;SDS011;32463;48.298;11.620;2023-02-08T00:59:13;26.58;;;11.85;;
46723;SDS011;32463;48.298;11.620;2023-02-08T01:01:39;24.90;;;10.85;;
46723;SDS011;32463;48.298;11.620;2023-02-08T01:04:07;25.23;;;11.68;;
46723;SDS011;32463;48.298;11.620;2023-02-08T01:06:33;24.85;;;11.30;;
46723;SDS011;32463;48.298;11.620;2023-02-08T01:09:00;27.33;;;12.20;;
46723;SDS011;32463;48.298;11.620;2023-02-08T01:11:26;25.25;;;11.63;;
46723;SDS011;32463;48.298;11.620;2023-02-08T01:13:55;25.65;;;11.95;;
46723;SDS011;32463;48.298;11.620;2023-02-08T01:16:23;26.63;;;11.65;;
46723;SDS011;32463;48.298;11.620;2023-02-08T01:18:53;26.50;;;12.05;;
46723;SDS011;32463;48.298;11.620;2023-02-08T01:21:23;28.85;;;12.20;;
46723;SDS011;32463;48.298;11.620;2023-02-08T01:23:53;26.83;;;12.15;;
46723;SDS011;32463;48.298;11.620;2023-02-08T01:26:20;26.92;;;12.98;;
46723;SDS011;32463;48.298;11.620;2023-02-08T01:28:48;27.83;;;12.50;;
46723;SDS011;32463;48.298;11.620;2023-02-08T01:31:16;28.73;;;13.68;;
46723;SDS011;32463;48.298;11.620;2023-02-08T01:34:02;25.95;;;12.60;;
46723;SDS011;32463;48.298;11.620;2023-02-08T01:36:30;25.65;;;12.30;;
46723;SDS011;32463;48.298;11.620;2023-02-08T01:38:58;29.90;;;13.45;;
46723;SDS011;32463;48.298;11.620;2023-02-08T01:41:26;26.77;;;12.93;;
46723;SDS011;32463;48.298;11.620;2023-02-08T01:46:30;28.42;;;12.40;;
46723;SDS011;32463;48.298;11.620;2023-02-08T01:49:00;38.17;;;13.90;;
46723;SDS011;32463;48.298;11.620;2023-02-08T01:51:31;29.15;;;12.25;;
46723;SDS011;32463;48.298;11.620;2023-02-08T01:54:03;29.20;;;13.65;;
46723;SDS011;32463;48.298;11.620;2023-02-08T01:56:32;31.20;;;13.65;;
46723;SDS011;32463;48.298;11.620;2023-02-08T01:59:03;28.13;;;13.05;;
46723;SDS011;32463;48.298;11.620;2023-02-08T02:01:34;31.80;;;13.37;;
46723;SDS011;32463;48.298;11.620;2023-02-08T02:04:02;27.70;;;13.38;;
46723;SDS011;32463;48.298;11.620;2023-02-08T02:06:32;29.75;;;13.25;;
46723;SDS011;32463;48.298;11.620;2023-02-08T02:09:04;27.75;;;12.70;;
46723;SDS011;32463;48.298;11.620;2023-02-08T02:11:37;33.20;;;14.55;;
46723;SDS011;32463;48.298;11.620;2023-02-08T02:14:03;31.50;;;13.27;;
46723;SDS011;32463;48.298;11.620;2023-02-08T02:16:30;28.15;;;13.20;;
46723;SDS011;32463;48.298;11.620;2023-02-08T02:18:57;34.90;;;14.52;;
46723;SDS011;32463;48.298;11.620;2023-02-08T02:27:00;34.60;;;14.38;;
46723;SDS011;32463;48.298;11.620;2023-02-08T02:29:55;31.95;;;13.52;;
46723;SDS011;32463;48.298;11.620;2023-02-08T02:33:12;31.42;;;13.35;;
46723;SDS011;32463;48.298;11.620;2023-02-08T02:41:25;32.60;;;13.98;;
46723;SDS011;32463;48.298;11.620;2023-02-08T02:47:17;28.65;;;13.35;;
46723;SDS011;32463;48.298;11.620;2023-02-08T02:49:47;32.60;;;14.27;;
46723;SDS011;32463;48.298;11.620;2023-02-08T02:52:38;34.90;;;14.52;;
46723;SDS011;32463;48.298;11.620;2023-02-08T02:55:13;31.45;;;13.00;;
46723;SDS011;32463;48.298;11.620;2023-02-08T02:57:43;32.50;;;13.68;;
46723;SDS011;32463;48.298;11.620;2023-02-08T03:00:15;32.45;;;13.30;;
46723;SDS011;32463;48.298;11.620;2023-02-08T03:02:46;33.95;;;14.50;;
46723;SDS011;32463;48.298;11.620;2023-02-08T03:05:13;39.15;;;14.52;;
46723;SDS011;32463;48.298;11.620;2023-02-08T03:13:11;32.55;;;13.80;;
46723;SDS011;32463;48.298;11.620;2023-02-08T03:21:37;35.35;;;15.07;;
46723;SDS011;32463;48.298;11.620;2023-02-08T03:29:27;30.75;;;13.70;;
46723;SDS011;32463;48.298;11.620;2023-02-08T03:34:46;32.20;;;14.10;;
46723;SDS011;32463;48.298;11.620;2023-02-08T03:37:22;35.25;;;15.32;;
46723;SDS011;32463;48.298;11.620;2023-02-08T03:39:59;34.35;;;14.63;;
46723;SDS011;32463;48.298;11.620;2023-02-08T03:42:31;35.88;;;15.23;;
46723;SDS011;32463;48.298;11.620;2023-02-08T03:45:02;30.23;;;14.13;;
46723;SDS011;32463;48.298;11.620;2023-02-08T03:47:35;37.80;;;14.80;;
46723;SDS011;32463;48.298;11.620;2023-02-08T03:50:06;35.45;;;15.82;;
46723;SDS011;32463;48.298;11.620;2023-02-08T03:52:36;38.38;;;15.43;;
46723;SDS011;32463;48.298;11.620;2023-02-08T03:57:52;33.70;;;15.43;;
46723;SDS011;32463;48.298;11.620;2023-02-08T04:00:21;32.10;;;15.05;;
46723;SDS011;32463;48.298;11.620;2023-02-08T04:05:27;32.83;;;15.57;;
46723;SDS011;32463;48.298;11.620;2023-02-08T04:07:54;37.10;;;16.73;;
46723;SDS011;32463;48.298;11.620;2023-02-08T04:10:20;37.95;;;16.58;;
46723;SDS011;32463;48.298;11.620;2023-02-08T04:12:47;31.38;;;15.65;;
46723;SDS011;32463;48.298;11.620;2023-02-08T04:15:14;37.30;;;15.07;;
46723;SDS011;32463;48.298;11.620;2023-02-08T04:17:41;35.20;;;15.90;;
46723;SDS011;32463;48.298;11.620;2023-02-08T04:20:08;37.05;;;15.65;;
46723;SDS011;32463;48.298;11.620;2023-02-08T04:22:35;34.63;;;15.93;;
46723;SDS011;32463;48.298;11.620;2023-02-08T04:25:01;30.90;;;15.63;;
46723;SDS011;32463;48.298;11.620;2023-02-08T04:27:29;33.17;;;15.18;;
46723;SDS011;32463;48.298;11.620;2023-02-08T04:29:56;36.25;;;15.80;;
46723;SDS011;32463;48.298;11.620;2023-02-08T04:32:22;36.42;;;15.95;;
46723;SDS011;32463;48.298;11.620;2023-02-08T04:34:50;32.70;;;14.80;;
46723;SDS011;32463;48.298;11.620;2023-02-08T04:37:16;36.75;;;15.63;;
46723;SDS011;32463;48.298;11.620;2023-02-08T04:39:42;33.58;;;15.23;;
46723;SDS011;32463;48.298;11.620;2023-02-08T04:42:09;33.83;;;15.57;;
46723;SDS011;32463;48.298;11.620;2023-02-08T04:44:35;35.25;;;15.85;;
46723;SDS011;32463;48.298;11.620;2023-02-08T04:47:02;30.48;;;14.85;;
46723;SDS011;32463;48.298;11.620;2023-02-08T04:49:28;37.17;;;16.15;;
46723;SDS011;32463;48.298;11.620;2023-02-08T04:51:55;33.67;;;15.48;;
46723;SDS011;32463;48.298;11.620;2023-02-08T04:54:21;38.38;;;15.82;;
46723;SDS011;32463;48.298;11.620;2023-02-08T04:56:48;34.08;;;15.88;;
46723;SDS011;32463;48.298;11.620;2023-02-08T04:59:14;39.28;;;16.00;;
46723;SDS011;32463;48.298;11.620;2023-02-08T05:01:41;34.53;;;16.75;;
46723;SDS011;32463;48.298;11.620;2023-02-08T05:04:07;33.50;;;16.05;;
46723;SDS011;32463;48.298;11.620;2023-02-08T05:06:34;33.38;;;15.15;;
46723;SDS011;32463;48.298;11.620;2023-02-08T05:09:00;32.75;;;14.90;;
46723;SDS011;32463;48.298;11.620;2023-02-08T05:11:27;34.92;;;15.57;;
46723;SDS011;32463;48.298;11.620;2023-02-08T05:13:54;34.35;;;15.43;;
46723;SDS011;32463;48.298;11.620;2023-02-08T05:16:20;32.40;;;14.43;;
46723;SDS011;32463;48.298;11.620;2023-02-08T05:18:47;36.65;;;16.27;;
46723;SDS011;32463;48.298;11.620;2023-02-08T05:21:13;35.85;;;15.85;;
46723;SDS011;32463;48.298;11.620;2023-02-08T05:23:39;36.58;;;17.30;;
46723;SDS011;32463;48.298;11.620;2023-02-08T05:26:06;38.40;;;18.48;;
46723;SDS011;32463;48.298;11.620;2023-02-08T05:28:34;40.35;;;17.27;;
46723;SDS011;32463;48.298;11.620;2023-02-08T05:31:08;37.22;;;16.27;;
46723;SDS011;32463;48.298;11.620;2023-02-08T05:33:40;39.58;;;17.75;;
46723;SDS011;32463;48.298;11.620;2023-02-08T05:36:07;35.95;;;16.77;;
46723;SDS011;32463;48.298;11.620;2023-02-08T05:38:34;35.97;;;17.20;;
46723;SDS011;32463;48.298;11.620;2023-02-08T05:41:00;37.63;;;16.45;;
46723;SDS011;32463;48.298;11.620;2023-02-08T05:43:27;38.20;;;16.52;;
46723;SDS011;32463;48.298;11.620;2023-02-08T05:45:53;44.80;;;17.85;;
46723;SDS011;32463;48.298;11.620;2023-02-08T05:48:20;41.08;;;16.77;;
46723;SDS011;32463;48.298;11.620;2023-02-08T05:50:46;39.60;;;17.95;;
46723;SDS011;32463;48.298;11.620;2023-02-08T05:53:14;43.55;;;18.08;;
46723;SDS011;32463;48.298;11.620;2023-02-08T05:55:43;40.40;;;18.55;;
46723;SDS011;32463;48.298;11.620;2023-02-08T05:58:11;40.05;;;17.40;;
46723;SDS011;32463;48.298;11.620;2023-02-08T06:00:37;43.80;;;16.60;;
46723;SDS011;32463;48.298;11.620;2023-02-08T06:03:04;41.20;;;17.30;;
46723;SDS011;32463;48.298;11.620;2023-02-08T06:05:31;40.40;;;17.48;;
46723;SDS011;32463;48.298;11.620;2023-02-08T06:07:58;46.17;;;17.00;;
46723;SDS011;32463;48.298;11.620;2023-02-08T06:10:24;40.45;;;16.20;;
46723;SDS011;32463;48.298;11.620;2023-02-08T06:12:51;36.40;;;15.63;;
46723;SDS011;32463;48.298;11.620;2023-02-08T06:15:17;33.92;;;15.48;;
46723;SDS011;32463;48.298;11.620;2023-02-08T06:17:44;32.95;;;15.90;;
46723;SDS011;32463;48.298;11.620;2023-02-08T06:20:11;34.50;;;16.30;;
46723;SDS011;32463;48.298;11.620;2023-02-08T06:22:38;35.10;;;15.93;;
46723;SDS011;32463;48.298;11.620;2023-02-08T06:25:06;35.88;;;15.55;;
46723;SDS011;32463;48.298;11.620;2023-02-08T06:27:32;37.50;;;16.45;;
46723;SDS011;32463;48.298;11.620;2023-02-08T06:30:00;37.35;;;17.02;;
46723;SDS011;32463;48.298;11.620;2023-02-08T06:32:27;35.55;;;16.05;;
46723;SDS011;32463;48.298;11.620;2023-02-08T06:34:54;37.85;;;17.75;;
46723;SDS011;32463;48.298;11.620;2023-02-08T06:37:20;37.85;;;17.15;;
46723;SDS011;32463;48.298;11.620;2023-02-08T06:39:47;37.92;;;16.73;;
46723;SDS011;32463;48.298;11.620;2023-02-08T06:42:13;33.42;;;16.13;;
46723;SDS011;32463;48.298;11.620;2023-02-08T06:44:42;39.03;;;16.85;;
46723;SDS011;32463;48.298;11.620;2023-02-08T06:47:09;41.75;;;17.13;;
46723;SDS011;32463;48.298;11.620;2023-02-08T06:49:36;37.55;;;17.05;;
46723;SDS011;32463;48.298;11.620;2023-02-08T06:52:02;36.53;;;16.00;;
46723;SDS011;32463;48.298;11.620;2023-02-08T06:54:29;36.03;;;16.45;;
46723;SDS011;32463;48.298;11.620;2023-02-08T06:56:55;39.78;;;17.13;;
46723;SDS011;32463;48.298;11.620;2023-02-08T06:59:21;39.80;;;17.52;;
46723;SDS011;32463;48.298;11.620;2023-02-08T07:01:48;41.13;;;17.50;;
46723;SDS011;32463;48.298;11.620;2023-02-08T07:04:14;42.15;;;18.35;;
46723;SDS011;32463;48.298;11.620;2023-02-08T07:06:41;33.08;;;16.48;;
46723;SDS011;32463;48.298;11.620;2023-02-08T07:09:07;39.55;;;17.35;;
46723;SDS011;32463;48.298;11.620;2023-02-08T07:11:34;38.53;;;17.05;;
46723;SDS011;32463;48.298;11.620;2023-02-08T07:14:00;41.08;;;17.20;;
46723;SDS011;32463;48.298;11.620;2023-02-08T07:16:27;34.70;;;16.08;;
46723;SDS011;32463;48.298;11.620;2023-02-08T07:18:53;39.58;;;16.33;;
46723;SDS011;32463;48.298;11.620;2023-02-08T07:21:20;35.45;;;16.20;;
46723;SDS011;32463;48.298;11.620;2023-02-08T07:23:47;36.58;;;16.35;;
46723;SDS011;32463;48.298;11.620;2023-02-08T07:26:13;35.28;;;16.00;;
46723;SDS011;32463;48.298;11.620;2023-02-08T07:28:40;39.17;;;16.92;;
46723;SDS011;32463;48.298;11.620;2023-02-08T07:31:07;36.33;;;15.88;;
46723;SDS011;32463;48.298;11.620;2023-02-08T07:33:36;36.90;;;15.32;;
46723;SDS011;32463;48.298;11.620;2023-02-08T07:36:04;30.35;;;14.88;;
46723;SDS011;32463;48.298;11.620;2023-02-08T07:38:31;40.80;;;15.73;;
46723;SDS011;32463;48.298;11.620;2023-02-08T07:41:03;37.70;;;16.50;;
46723;SDS011;32463;48.298;11.620;2023-02-08T07:43:35;38.22;;;16.13;;
46723;SDS011;32463;48.298;11.620;2023-02-08T07:46:04;39.58;;;17.30;;
46723;SDS011;32463;48.298;11.620;2023-02-08T07:48:32;41.60;;;17.05;;
46723;SDS011;32463;48.298;11.620;2023-02-08T07:50:59;34.40;;;16.42;;
46723;SDS011;32463;48.298;11.620;2023-02-08T07:53:26;34.83;;;15.68;;
46723;SDS011;32463;48.298;11.620;2023-02-08T07:55:53;36.50;;;16.70;;
46723;SDS011;32463;48.298;11.620;2023-02-08T07:58:20;41.13;;;17.42;;
46723;SDS011;32463;48.298;11.620;2023-02-08T08:00:46;41.28;;;16.63;;
46723;SDS011;32463;48.298;11.620;2023-02-08T08:03:13;34.72;;;17.20;;
46723;SDS011;32463;48.298;11.620;2023-02-08T08:05:40;38.65;;;16.55;;
46723;SDS011;32463;48.298;11.620;2023-02-08T08:08:07;37.00;;;16.27;;
46723;SDS011;32463;48.298;11.620;2023-02-08T08:10:35;36.97;;;16.02;;
46723;SDS011;32463;48.298;11.620;2023-02-08T08:13:01;41.13;;;17.17;;
46723;SDS011;32463;48.298;11.620;2023-02-08T08:15:28;39.22;;;17.15;;
46723;SDS011;32463;48.298;11.620;2023-02-08T08:17:55;41.45;;;17.45;;
46723;SDS011;32463;48.298;11.620;2023-02-08T08:20:21;34.22;;;17.17;;
46723;SDS011;32463;48.298;11.620;2023-02-08T08:22:48;35.13;;;15.75;;
46723;SDS011;32463;48.298;11.620;2023-02-08T08:25:15;38.47;;;16.15;;
46723;SDS011;32463;48.298;11.620;2023-02-08T08:27:41;39.25;;;16.67;;
46723;SDS011;32463;48.298;11.620;2023-02-08T08:30:09;33.50;;;16.05;;
46723;SDS011;32463;48.298;11.620;2023-02-08T08:32:38;35.85;;;15.82;;
46723;SDS011;32463;48.298;11.620;2023-02-08T08:35:05;38.22;;;16.55;;
46723;SDS011;32463;48.298;11.620;2023-02-08T08:37:33;33.83;;;16.63;;
46723;SDS011;32463;48.298;11.620;2023-02-08T08:40:00;35.63;;;15.38;;
46723;SDS011;32463;48.298;11.620;2023-02-08T08:42:28;32.63;;;15.02;;
46723;SDS011;32463;48.298;11.620;2023-02-08T08:44:54;35.10;;;14.80;;
46723;SDS011;32463;48.298;11.620;2023-02-08T08:47:20;34.95;;;16.35;;
46723;SDS011;32463;48.298;11.620;2023-02-08T08:49:47;34.35;;;16.65;;
46723;SDS011;32463;48.298;11.620;2023-02-08T08:52:13;35.83;;;15.77;;
46723;SDS011;32463;48.298;11.620;2023-02-08T08:54:40;31.58;;;15.25;;
46723;SDS011;32463;48.298;11.620;2023-02-08T08:57:06;29.38;;;14.85;;
46723;SDS011;32463;48.298;11.620;2023-02-08T08:59:33;33.92;;;14.60;;
46723;SDS011;32463;48.298;11.620;2023-02-08T09:01:59;32.67;;;15.02;;
46723;SDS011;32463;48.298;11.620;2023-02-08T09:04:26;35.13;;;15.02;;
46723;SDS011;32463;48.298;11.620;2023-02-08T09:06:53;33.35;;;14.00;;
46723;SDS011;32463;48.298;11.620;2023-02-08T09:09:20;36.00;;;15.20;;
46723;SDS011;32463;48.298;11.620;2023-02-08T09:11:47;35.75;;;14.98;;
46723;SDS011;32463;48.298;11.620;2023-02-08T09:14:14;31.55;;;14.50;;
46723;SDS011;32463;48.298;11.620;2023-02-08T09:16:41;38.63;;;15.90;;
46723;SDS011;32463;48.298;11.620;2023-02-08T09:19:13;30.65;;;14.63;;
46723;SDS011;32463;48.298;11.620;2023-02-08T09:21:40;31.52;;;14.98;;
46723;SDS011;32463;48.298;11.620;2023-02-08T09:24:08;38.03;;;15.05;;
46723;SDS011;32463;48.298;11.620;2023-02-08T09:26:35;28.40;;;14.20;;
46723;SDS011;32463;48.298;11.620;2023-02-08T09:29:02;31.83;;;15.35;;
46723;SDS011;32463;48.298;11.620;2023-02-08T09:31:30;28.00;;;13.57;;
46723;SDS011;32463;48.298;11.620;2023-02-08T09:33:59;30.70;;;13.93;;
46723;SDS011;32463;48.298;11.620;2023-02-08T09:36:27;26.27;;;13.60;;
46723;SDS011;32463;48.298;11.620;2023-02-08T09:38:57;25.63;;;14.13;;
46723;SDS011;32463;48.298;11.620;2023-02-08T09:46:37;27.52;;;13.40;;
46723;SDS011;32463;48.298;11.620;2023-02-08T09:49:12;25.00;;;13.07;;
46723;SDS011;32463;48.298;11.620;2023-02-08T09:51:51;25.38;;;13.68;;
46723;SDS011;32463;48.298;11.620;2023-02-08T09:54:24;24.88;;;12.80;;
46723;SDS011;32463;48.298;11.620;2023-02-08T09:56:55;28.35;;;13.18;;
46723;SDS011;32463;48.298;11.620;2023-02-08T09:59:24;29.98;;;14.38;;
46723;SDS011;32463;48.298;11.620;2023-02-08T10:01:59;25.75;;;13.05;;
46723;SDS011;32463;48.298;11.620;2023-02-08T10:04:40;29.00;;;14.07;;
46723;SDS011;32463;48.298;11.620;2023-02-08T10:07:27;26.85;;;13.18;;
46723;SDS011;32463;48.298;11.620;2023-02-08T10:09:59;27.23;;;13.85;;
46723;SDS011;32463;48.298;11.620;2023-02-08T10:12:38;27.60;;;13.20;;
46723;SDS011;32463;48.298;11.620;2023-02-08T10:15:39;23.58;;;12.43;;
46723;SDS011;32463;48.298;11.620;2023-02-08T10:29:44;29.30;;;13.63;;
46723;SDS011;32463;48.298;11.620;2023-02-08T10:32:57;24.58;;;12.50;;
46723;SDS011;32463;48.298;11.620;2023-02-08T10:35:40;25.70;;;13.20;;
46723;SDS011;32463;48.298;11.620;2023-02-08T10:43:23;25.17;;;12.27;;
46723;SDS011;32463;48.298;11.620;2023-02-08T10:51:03;31.45;;;13.80;;
46723;SDS011;32463;48.298;11.620;2023-02-08T10:53:29;27.45;;;13.32;;
46723;SDS011;32463;48.298;11.620;2023-02-08T10:55:56;27.83;;;14.23;;
46723;SDS011;32463;48.298;11.620;2023-02-08T10:58:23;26.45;;;13.48;;
46723;SDS011;32463;48.298;11.620;2023-02-08T11:00:50;24.50;;;11.98;;
46723;SDS011;32463;48.298;11.620;2023-02-08T11:03:22;23.90;;;12.80;;
46723;SDS011;32463;48.298;11.620;2023-02-08T11:05:51;22.83;;;12.38;;
46723;SDS011;32463;48.298;11.620;2023-02-08T11:08:24;29.63;;;13.02;;
46723;SDS011;32463;48.298;11.620;2023-02-08T11:10:59;24.88;;;13.07;;
46723;SDS011;32463;48.298;11.620;2023-02-08T11:13:37;27.70;;;13.35;;
46723;SDS011;32463;48.298;11.620;2023-02-08T11:16:06;23.55;;;12.38;;
46723;SDS011;32463;48.298;11.620;2023-02-08T11:18:38;26.38;;;12.38;;
46723;SDS011;32463;48.298;11.620;2023-02-08T11:21:22;27.95;;;12.82;;
46723;SDS011;32463;48.298;11.620;2023-02-08T11:27:14;24.75;;;13.02;;
46723;SDS011;32463;48.298;11.620;2023-02-08T11:29:43;23.67;;;12.73;;
46723;SDS011;32463;48.298;11.620;2023-02-08T11:32:13;23.73;;;12.68;;
46723;SDS011;32463;48.298;11.620;2023-02-08T11:34:42;25.33;;;13.80;;
46723;SDS011;32463;48.298;11.620;2023-02-08T11:37:16;23.65;;;13.07;;
46723;SDS011;32463;48.298;11.620;2023-02-08T11:39:51;24.42;;;12.95;;
46723;SDS011;32463;48.298;11.620;2023-02-08T11:42:30;24.92;;;12.80;;
46723;SDS011;32463;48.298;11.620;2023-02-08T11:45:01;24.67;;;11.85;;
46723;SDS011;32463;48.298;11.620;2023-02-08T11:47:30;23.25;;;12.32;;
46723;SDS011;32463;48.298;11.620;2023-02-08T11:49:59;29.00;;;13.35;;
46723;SDS011;32463;48.298;11.620;2023-02-08T11:52:31;24.10;;;13.27;;
46723;SDS011;32463;48.298;11.620;2023-02-08T11:55:11;23.52;;;12.88;;
46723;SDS011;32463;48.298;11.620;2023-02-08T11:57:50;22.45;;;12.50;;
46723;SDS011;32463;48.298;11.620;2023-02-08T12:11:21;25.70;;;14.57;;
46723;SDS011;32463;48.298;11.620;2023-02-08T12:17:38;22.77;;;13.80;;
46723;SDS011;32463;48.298;11.620;2023-02-08T12:25:47;22.83;;;13.32;;
46723;SDS011;32463;48.298;11.620;2023-02-08T12:28:28;22.98;;;13.48;;
46723;SDS011;32463;48.298;11.620;2023-02-08T12:33:55;23.27;;;13.32;;
46723;SDS011;32463;48.298;11.620;2023-02-08T12:36:42;24.45;;;13.43;;
46723;SDS011;32463;48.298;11.620;2023-02-08T12:39:32;22.30;;;13.05;;
46723;SDS011;32463;48.298;11.620;2023-02-08T12:42:36;23.52;;;12.35;;
46723;SDS011;32463;48.298;11.620;2023-02-08T12:45:39;22.42;;;12.10;;
46723;SDS011;32463;48.298;11.620;2023-02-08T12:48:32;21.83;;;12.50;;
46723;SDS011;32463;48.298;11.620;2023-02-08T12:51:20;19.23;;;11.63;;
46723;SDS011;32463;48.298;11.620;2023-02-08T12:54:16;22.80;;;11.98;;
46723;SDS011;32463;48.298;11.620;2023-02-08T12:56:54;22.25;;;12.55;;
46723;SDS011;32463;48.298;11.620;2023-02-08T12:59:39;23.02;;;12.35;;
46723;SDS011;32463;48.298;11.620;2023-02-08T13:02:22;19.42;;;11.60;;
46723;SDS011;32463;48.298;11.620;2023-02-08T13:07:45;21.33;;;11.77;;
46723;SDS011;32463;48.298;11.620;2023-02-08T13:13:03;22.20;;;11.80;;
46723;SDS011;32463;48.298;11.620;2023-02-08T13:15:44;20.15;;;10.88;;
46723;SDS011;32463;48.298;11.620;2023-02-08T13:18:19;21.55;;;11.25;;
46723;SDS011;32463;48.298;11.620;2023-02-08T13:23:25;17.85;;;11.27;;
46723;SDS011;32463;48.298;11.620;2023-02-08T13:25:59;19.75;;;11.65;;
46723;SDS011;32463;48.298;11.620;2023-02-08T13:28:31;20.20;;;11.98;;
46723;SDS011;32463;48.298;11.620;2023-02-08T13:31:05;18.27;;;11.45;;
46723;SDS011;32463;48.298;11.620;2023-02-08T13:33:57;23.88;;;11.95;;
46723;SDS011;32463;48.298;11.620;2023-02-08T13:36:32;19.20;;;11.80;;
46723;SDS011;32463;48.298;11.620;2023-02-08T13:39:02;18.83;;;12.15;;
46723;SDS011;32463;48.298;11.620;2023-02-08T13:41:31;18.65;;;11.75;;
46723;SDS011;32463;48.298;11.620;2023-02-08T13:44:05;22.75;;;12.65;;
46723;SDS011;32463;48.298;11.620;2023-02-08T13:46:44;21.77;;;11.50;;
46723;SDS011;32463;48.298;11.620;2023-02-08T13:52:08;20.00;;;12.13;;
46723;SDS011;32463;48.298;11.620;2023-02-08T13:54:36;25.95;;;12.20;;
46723;SDS011;32463;48.298;11.620;2023-02-08T13:57:04;22.45;;;12.13;;
46723;SDS011;32463;48.298;11.620;2023-02-08T14:00:30;20.38;;;11.10;;
46723;SDS011;32463;48.298;11.620;2023-02-08T14:02:58;20.23;;;12.45;;
46723;SDS011;32463;48.298;11.620;2023-02-08T14:05:45;20.25;;;12.57;;
46723;SDS011;32463;48.298;11.620;2023-02-08T14:13:59;22.77;;;12.07;;
46723;SDS011;32463;48.298;11.620;2023-02-08T14:18:57;24.38;;;12.70;;
46723;SDS011;32463;48.298;11.620;2023-02-08T14:24:02;19.67;;;11.65;;
46723;SDS011;32463;48.298;11.620;2023-02-08T14:26:31;21.08;;;11.35;;
46723;SDS011;32463;48.298;11.620;2023-02-08T14:28:59;18.52;;;10.52;;
46723;SDS011;32463;48.298;11.620;2023-02-08T14:31:34;20.83;;;11.15;;
46723;SDS011;32463;48.298;11.620;2023-02-08T14:34:03;19.30;;;10.75;;
46723;SDS011;32463;48.298;11.620;2023-02-08T14:36:34;20.45;;;11.30;;
46723;SDS011;32463;48.298;11.620;2023-02-08T14:39:22;20.42;;;10.95;;
46723;SDS011;32463;48.298;11.620;2023-02-08T14:42:03;25.38;;;11.77;;
46723;SDS011;32463;48.298;11.620;2023-02-08T14:49:57;22.42;;;10.48;;
46723;SDS011;32463;48.298;11.620;2023-02-08T14:52:31;22.05;;;11.73;;
46723;SDS011;32463;48.298;11.620;2023-02-08T14:55:07;19.75;;;10.10;;
46723;SDS011;32463;48.298;11.620;2023-02-08T14:57:40;21.25;;;11.18;;
46723;SDS011;32463;48.298;11.620;2023-02-08T15:00:14;23.35;;;10.65;;
46723;SDS011;32463;48.298;11.620;2023-02-08T15:02:44;20.90;;;10.40;;
46723;SDS011;32463;48.298;11.620;2023-02-08T15:07:50;19.52;;;10.10;;
46723;SDS011;32463;48.298;11.620;2023-02-08T15:10:19;19.85;;;10.25;;
46723;SDS011;32463;48.298;11.620;2023-02-08T15:12:52;20.88;;;9.55;;
46723;SDS011;32463;48.298;11.620;2023-02-08T15:15:25;17.40;;;9.82;;
46723;SDS011;32463;48.298;11.620;2023-02-08T15:17:56;18.45;;;9.38;;
46723;SDS011;32463;48.298;11.620;2023-02-08T15:20:25;21.13;;;10.27;;
46723;SDS011;32463;48.298;11.620;2023-02-08T15:23:04;23.95;;;11.35;;
46723;SDS011;32463;48.298;11.620;2023-02-08T15:25:43;22.08;;;11.00;;
46723;SDS011;32463;48.298;11.620;2023-02-08T15:28:20;28.25;;;10.35;;
46723;SDS011;32463;48.298;11.620;2023-02-08T15:31:06;20.63;;;10.43;;
46723;SDS011;32463;48.298;11.620;2023-02-08T15:33:38;20.40;;;10.50;;
46723;SDS011;32463;48.298;11.620;2023-02-08T15:36:07;20.40;;;9.45;;
46723;SDS011;32463;48.298;11.620;2023-02-08T15:38:39;18.70;;;10.15;;
46723;SDS011;32463;48.298;11.620;2023-02-08T15:43:36;21.08;;;9.55;;
46723;SDS011;32463;48.298;11.620;2023-02-08T15:46:23;17.73;;;8.90;;
46723;SDS011;32463;48.298;11.620;2023-02-08T15:48:52;19.75;;;8.65;;
46723;SDS011;32463;48.298;11.620;2023-02-08T15:51:20;22.45;;;10.10;;
46723;SDS011;32463;48.298;11.620;2023-02-08T15:53:49;22.50;;;10.30;;
46723;SDS011;32463;48.298;11.620;2023-02-08T15:56:19;15.85;;;8.57;;
46723;SDS011;32463;48.298;11.620;2023-02-08T15:58:58;19.85;;;9.20;;
46723;SDS011;32463;48.298;11.620;2023-02-08T16:01:27;19.10;;;9.35;;
46723;SDS011;32463;48.298;11.620;2023-02-08T16:03:56;20.98;;;8.85;;
46723;SDS011;32463;48.298;11.620;2023-02-08T16:06:25;20.98;;;9.02;;
46723;SDS011;32463;48.298;11.620;2023-02-08T16:08:55;22.33;;;9.20;;
46723;SDS011;32463;48.298;11.620;2023-02-08T16:11:27;20.20;;;10.02;;
46723;SDS011;32463;48.298;11.620;2023-02-08T16:13:57;21.98;;;9.07;;
46723;SDS011;32463;48.298;11.620;2023-02-08T16:16:43;22.38;;;9.82;;
46723;SDS011;32463;48.298;11.620;2023-02-08T16:19:31;20.13;;;8.88;;
46723;SDS011;32463;48.298;11.620;2023-02-08T16:24:37;18.80;;;9.70;;
46723;SDS011;32463;48.298;11.620;2023-02-08T16:27:05;22.90;;;10.27;;
46723;SDS011;32463;48.298;11.620;2023-02-08T16:29:40;19.05;;;9.18;;
46723;SDS011;32463;48.298;11.620;2023-02-08T16:32:21;26.83;;;10.35;;
46723;SDS011;32463;48.298;11.620;2023-02-08T16:34:52;22.25;;;10.68;;
46723;SDS011;32463;48.298;11.620;2023-02-08T16:37:29;20.38;;;10.18;;
46723;SDS011;32463;48.298;11.620;2023-02-08T16:40:01;17.33;;;8.18;;